createdAt,value
2023-09-13T00:00:27.057Z,101360.88
2023-09-13T00:02:53.653Z,101360.06
2023-09-13T00:05:20.443Z,101367.97
2023-09-13T00:07:47.131Z,101362.72
2023-09-13T00:10:13.612Z,101375.66
2023-09-13T00:12:40.221Z,101364.06
2023-09-13T00:15:07.286Z,101366.69
2023-09-13T00:17:34.449Z,101364.06
2023-09-13T00:20:01.311Z,101359.63
2023-09-13T00:22:27.762Z,101360.88
2023-09-13T00:24:54.221Z,101353.88
2023-09-13T00:27:20.688Z,101355.94
2023-09-13T00:29:47.117Z,101361.75
2023-09-13T00:32:13.607Z,101352.06
2023-09-13T00:34:40.134Z,101357.78
2023-09-13T00:37:06.819Z,101357.88
2023-09-13T00:39:33.273Z,101366.34
2023-09-13T00:41:59.720Z,101367.13
2023-09-13T00:44:26.183Z,101365.28
2023-09-13T00:46:52.886Z,101362.44
2023-09-13T00:49:19.682Z,101359.81
2023-09-13T00:51:46.276Z,101357.16
2023-09-13T00:54:14.159Z,101352.13
2023-09-13T00:56:42.642Z,101352.34
2023-09-13T00:59:10.690Z,101347.56
2023-09-13T01:01:37.407Z,101352.69
2023-09-13T01:04:04.582Z,101356.81
2023-09-13T01:06:31.996Z,101358.50
2023-09-13T01:08:58.979Z,101358.56
2023-09-13T01:11:26.299Z,101364.03
2023-09-13T01:13:52.799Z,101357.63
2023-09-13T01:16:47.298Z,101363.78
2023-09-13T01:19:45.805Z,101354.72
2023-09-13T01:22:27.549Z,101351.88
2023-09-13T01:25:16.905Z,101342.72
2023-09-13T01:28:02.126Z,101348.19
2023-09-13T01:30:29.914Z,101348.75
2023-09-13T01:32:58.684Z,101353.22
2023-09-13T01:35:25.222Z,101352.41
2023-09-13T01:37:51.759Z,101357.88
2023-09-13T01:40:18.427Z,101348.63
2023-09-13T01:42:46.540Z,101343.03
2023-09-13T01:45:15.419Z,101346.88
2023-09-13T01:47:47.231Z,101355.00
2023-09-13T01:50:15.207Z,101359.91
2023-09-13T01:52:41.767Z,101356.09
2023-09-13T01:55:08.997Z,101351.88
2023-09-13T01:57:35.704Z,101356.97
2023-09-13T02:00:05.825Z,101346.69
2023-09-13T02:02:32.307Z,101351.97
2023-09-13T02:04:58.830Z,101352.19
2023-09-13T02:07:25.355Z,101352.41
2023-09-13T02:09:53.369Z,101358.09
2023-09-13T02:12:19.962Z,101356.69
2023-09-13T02:14:46.532Z,101350.06
2023-09-13T02:17:12.947Z,101359.84
2023-09-13T02:19:39.482Z,101362.56
2023-09-13T02:22:06.104Z,101360.13
2023-09-13T02:24:34.019Z,101360.78
2023-09-13T02:27:01.038Z,101362.84
2023-09-13T02:29:27.506Z,101362.25
2023-09-13T02:31:54.286Z,101370.56
2023-09-13T02:34:21.131Z,101369.72
2023-09-13T02:36:49.010Z,101380.88
2023-09-13T02:39:51.035Z,101375.97
2023-09-13T02:42:17.500Z,101367.31
2023-09-13T02:44:43.991Z,101371.75
2023-09-13T02:47:10.795Z,101366.25
2023-09-13T02:49:37.271Z,101376.78
2023-09-13T02:52:04.054Z,101369.13
2023-09-13T02:54:30.854Z,101370.16
2023-09-13T02:56:57.432Z,101384.31
2023-09-13T02:59:23.967Z,101375.81
2023-09-13T03:01:51.736Z,101374.59
2023-09-13T03:04:18.610Z,101379.03
2023-09-13T03:06:45.168Z,101384.72
2023-09-13T03:09:11.695Z,101379.44
2023-09-13T03:11:38.323Z,101385.09
2023-09-13T03:14:06.240Z,101384.44
2023-09-13T03:16:32.767Z,101377.13
2023-09-13T03:18:59.486Z,101374.50
2023-09-13T03:21:26.198Z,101366.63
2023-09-13T03:23:52.724Z,101367.44
2023-09-13T03:26:24.756Z,101380.38
2023-09-13T03:28:56.205Z,101370.44
2023-09-13T03:31:25.141Z,101373.28
2023-09-13T03:33:54.357Z,101369.88
2023-09-13T03:36:21.700Z,101367.22
2023-09-13T03:38:48.503Z,101372.50
2023-09-13T03:41:17.288Z,101368.25
2023-09-13T03:43:44.005Z,101367.66
2023-09-13T03:46:11.067Z,101369.72
2023-09-13T03:48:39.021Z,101368.31
2023-09-13T03:51:05.972Z,101371.75
2023-09-13T03:53:32.742Z,101371.75
2023-09-13T03:56:00.238Z,101365.91
2023-09-13T03:58:27.054Z,101361.66
2023-09-13T04:00:54.468Z,101360.25
2023-09-13T04:03:21.358Z,101361.47
2023-09-13T04:05:48.175Z,101374.63
2023-09-13T04:08:14.858Z,101373.41
2023-09-13T04:10:41.440Z,101376.63
2023-09-13T04:13:08.153Z,101379.03
2023-09-13T04:15:34.809Z,101365.69
2023-09-13T04:18:01.416Z,101369.13
2023-09-13T04:20:27.978Z,101377.59
2023-09-13T04:22:54.399Z,101374.97
2023-09-13T04:25:20.890Z,101368.91
2023-09-13T04:27:48.610Z,101376.78
2023-09-13T04:30:16.907Z,101371.31
2023-09-13T04:32:44.206Z,101375.56
2023-09-13T04:35:13.279Z,101366.84
2023-09-13T04:37:40.349Z,101370.28
2023-09-13T04:40:07.495Z,101370.88
2023-09-13T04:42:38.676Z,101378.75
2023-09-13T04:45:05.849Z,101376.13
2023-09-13T04:47:32.547Z,101376.94
2023-09-13T04:49:59.295Z,101369.88
2023-09-13T04:52:25.852Z,101377.75
2023-09-13T04:54:52.374Z,101383.00
2023-09-13T04:57:18.942Z,101385.63
2023-09-13T04:59:47.415Z,101383.81
2023-09-13T05:02:14.095Z,101381.38
2023-09-13T05:04:41.227Z,101388.03
2023-09-13T05:07:08.420Z,101387.22
2023-09-13T05:09:36.550Z,101385.41
2023-09-13T05:12:03.306Z,101401.97
2023-09-13T05:14:29.757Z,101396.72
2023-09-13T05:16:56.294Z,101398.56
2023-09-13T05:19:22.863Z,101396.72
2023-09-13T05:21:49.465Z,101400.16
2023-09-13T05:24:15.974Z,101388.03
2023-09-13T05:26:42.424Z,101396.16
2023-09-13T05:29:08.857Z,101404.47
2023-09-13T05:31:35.428Z,101402.84
2023-09-13T05:34:02.971Z,101409.72
2023-09-13T05:36:29.477Z,101408.69
2023-09-13T05:38:55.890Z,101416.34
2023-09-13T05:41:24.006Z,101413.50
2023-09-13T05:43:50.833Z,101416.53
2023-09-13T05:46:17.870Z,101420.69
2023-09-13T05:48:44.482Z,101423.22
2023-09-13T05:51:10.902Z,101426.25
2023-09-13T05:53:37.407Z,101442.25
2023-09-13T05:56:06.810Z,101445.38
2023-09-13T05:58:33.455Z,101458.41
2023-09-13T06:01:00.510Z,101463.97
2023-09-13T06:03:27.406Z,101474.66
2023-09-13T06:05:53.963Z,101475.56
2023-09-13T06:08:20.723Z,101469.97
2023-09-13T06:10:47.543Z,101487.97
2023-09-13T06:13:16.206Z,101493.09
2023-09-13T06:15:43.121Z,101513.56
2023-09-13T06:18:09.759Z,101525.16
2023-09-13T06:20:36.700Z,101525.97
2023-09-13T06:23:03.193Z,101545.19
2023-09-13T06:25:29.714Z,101561.75
2023-09-13T06:27:56.351Z,101580.94
2023-09-13T06:30:23.193Z,101587.78
2023-09-13T06:33:05.478Z,101607.94
2023-09-13T06:35:38.428Z,101617.00
2023-09-13T06:38:06.239Z,101621.06
2023-09-13T06:40:36.211Z,101617.25
2023-09-13T06:43:03.550Z,101626.50
2023-09-13T06:45:31.167Z,101632.56
2023-09-13T06:47:59.097Z,101635.16
2023-09-13T06:50:37.491Z,101636.78
2023-09-13T06:53:30.500Z,101641.38
2023-09-13T06:56:02.380Z,101646.59
2023-09-13T06:58:33.953Z,101659.47
2023-09-13T07:03:34.564Z,101679.97
2023-09-13T07:06:01.767Z,101675.94
2023-09-13T07:08:28.566Z,101683.16
2023-09-13T07:10:55.048Z,101681.97
2023-09-13T07:13:21.558Z,101686.44
2023-09-13T07:15:48.936Z,101695.88
2023-09-13T07:18:16.180Z,101693.25
2023-09-13T07:20:42.764Z,101701.81
2023-09-13T07:23:10.043Z,101708.72
2023-09-13T07:25:36.560Z,101704.06
2023-09-13T07:28:03.712Z,101707.09
2023-09-13T07:30:30.289Z,101710.31
2023-09-13T07:32:57.186Z,101709.75
2023-09-13T07:35:24.748Z,101705.72
2023-09-13T07:37:51.466Z,101706.75
2023-09-13T07:40:18.090Z,101711.75
2023-09-13T07:42:44.698Z,101710.88
2023-09-13T07:45:11.190Z,101716.19
2023-09-13T07:47:37.883Z,101715.34
2023-09-13T07:50:04.768Z,101714.28
2023-09-13T07:52:37.643Z,101725.03
2023-09-13T07:55:14.989Z,101731.47
2023-09-13T07:57:41.443Z,101731.88
2023-09-13T08:00:08.373Z,101744.38
2023-09-13T08:02:34.775Z,101750.03
2023-09-13T08:05:01.339Z,101742.34
2023-09-13T08:07:28.353Z,101744.97
2023-09-13T08:09:54.851Z,101748.59
2023-09-13T08:12:21.364Z,101745.31
2023-09-13T08:14:47.787Z,101738.38
2023-09-13T08:17:14.303Z,101746.69
2023-09-13T08:19:40.830Z,101747.19
2023-09-13T08:22:09.597Z,101748.38
2023-09-13T08:24:36.069Z,101754.53
2023-09-13T08:27:02.518Z,101760.78
2023-09-13T08:29:29.033Z,101785.97
2023-09-13T08:31:55.559Z,101780.69
2023-09-13T08:34:22.044Z,101778.19
2023-09-13T08:36:50.240Z,101772.63
2023-09-13T08:39:16.960Z,101776.31
2023-09-13T08:41:50.460Z,101772.94
2023-09-13T08:44:23.554Z,101777.78
2023-09-13T08:46:57.022Z,101777.66
2023-09-13T08:49:24.237Z,101782.38
2023-09-13T08:51:52.617Z,101779.56
2023-09-13T08:54:20.332Z,101793.03
2023-09-13T08:56:46.978Z,101826.31
2023-09-13T08:59:14.280Z,101836.09
2023-09-13T09:01:47.489Z,101841.31
2023-09-13T09:04:15.556Z,101843.94
2023-09-13T09:06:43.214Z,101846.06
2023-09-13T09:09:10.418Z,101835.72
2023-09-13T09:11:39.261Z,101845.66
2023-09-13T09:14:05.913Z,101855.06
2023-09-13T09:16:35.637Z,101862.19
2023-09-13T09:19:05.917Z,101873.84
2023-09-13T09:21:41.828Z,101877.69
2023-09-13T09:24:08.466Z,101877.81
2023-09-13T09:26:34.970Z,101894.03
2023-09-13T09:29:34.875Z,101888.91
2023-09-13T09:32:01.568Z,101892.50
2023-09-13T09:34:32.136Z,101895.06
2023-09-13T09:37:08.154Z,101895.28
2023-09-13T09:39:43.933Z,101909.91
2023-09-13T09:42:16.941Z,101917.13
2023-09-13T09:44:44.315Z,101916.25
2023-09-13T09:47:21.234Z,101921.78
2023-09-13T09:49:48.907Z,101922.22
2023-09-13T09:52:16.815Z,101920.13
2023-09-13T09:54:48.804Z,101921.50
2023-09-13T09:57:27.210Z,101927.16
2023-09-13T09:59:53.822Z,101927.31
2023-09-13T10:02:28.790Z,101920.19
2023-09-13T10:04:55.620Z,101924.66
2023-09-13T10:07:22.106Z,101925.78
2023-09-13T10:09:48.595Z,101928.34
2023-09-13T10:12:16.183Z,101931.94
2023-09-13T10:14:45.406Z,101930.56
2023-09-13T10:17:12.689Z,101932.75
2023-09-13T10:19:39.884Z,101928.44
2023-09-13T10:22:06.385Z,101935.19
2023-09-13T10:24:39.437Z,101943.53
2023-09-13T10:27:09.709Z,101946.47
2023-09-13T10:29:46.648Z,101957.34
2023-09-13T10:32:16.404Z,101953.28
2023-09-13T10:34:50.002Z,101961.81
2023-09-13T10:37:33.607Z,101970.88
2023-09-13T10:40:23.333Z,101959.88
2023-09-13T10:42:50.288Z,101963.47
2023-09-13T10:45:20.298Z,101963.22
2023-09-13T10:47:49.221Z,101959.38
2023-09-13T10:50:16.923Z,101968.31
2023-09-13T10:52:45.180Z,101958.38
2023-09-13T10:55:13.594Z,101966.41
2023-09-13T10:57:41.957Z,101969.97
2023-09-13T11:00:12.905Z,101974.72
2023-09-13T11:02:42.667Z,101981.28
2023-09-13T11:05:13.954Z,101987.06
2023-09-13T11:07:49.294Z,101993.47
2023-09-13T11:10:20.589Z,102004.91
2023-09-13T11:12:51.447Z,102008.59
2023-09-13T11:15:27.580Z,102012.69
2023-09-13T11:17:55.745Z,102017.81
2023-09-13T11:20:29.701Z,102019.41
2023-09-13T11:26:00.823Z,102039.59
2023-09-13T11:28:38.425Z,102038.97
2023-09-13T11:31:10.605Z,102033.84
2023-09-13T11:33:41.147Z,102042.13
2023-09-13T11:36:09.180Z,102043.34
2023-09-13T11:38:36.801Z,102045.78
2023-09-13T11:41:04.144Z,102053.09
2023-09-13T11:43:34.535Z,102062.22
2023-09-13T11:46:02.179Z,102062.22
2023-09-13T11:48:57.187Z,102064.63
2023-09-13T11:51:39.419Z,102064.03
2023-09-13T11:54:17.033Z,102073.13
2023-09-13T11:56:48.822Z,102074.16
2023-09-13T11:59:18.617Z,102074.16
2023-09-13T12:01:50.307Z,102072.53
2023-09-13T12:06:55.147Z,102072.78
2023-09-13T12:09:28.856Z,102078.56
2023-09-13T12:12:01.420Z,102080.53
2023-09-13T12:14:57.212Z,102083.13
2023-09-13T12:17:20.306Z,102085.53
2023-09-13T12:19:48.182Z,102082.06
2023-09-13T12:22:18.337Z,102085.81
2023-09-13T12:24:59.179Z,102074.13
2023-09-13T12:27:25.682Z,102083.28
2023-09-13T12:29:53.133Z,102085.50
2023-09-13T12:32:19.706Z,102079.00
2023-09-13T12:34:46.349Z,102087.91
2023-09-13T12:37:12.999Z,102089.97
2023-09-13T12:39:39.547Z,102097.66
2023-09-13T12:42:10.133Z,102093.38
2023-09-13T12:44:38.448Z,102106.25
2023-09-13T12:47:06.167Z,102106.75
2023-09-13T12:49:32.770Z,102110.50
2023-09-13T12:51:59.378Z,102108.34
2023-09-13T12:54:26.390Z,102104.69
2023-09-13T12:56:52.885Z,102106.78
2023-09-13T12:59:19.389Z,102103.00
2023-09-13T13:01:45.929Z,102108.31
2023-09-13T13:04:12.756Z,102102.66
2023-09-13T13:06:55.881Z,102114.50
2023-09-13T13:09:23.440Z,102106.09
2023-09-13T13:11:50.823Z,102102.09
2023-09-13T13:14:20.537Z,102108.22
2023-09-13T13:16:54.478Z,102107.19
2023-09-13T13:19:51.824Z,102104.19
2023-09-13T13:22:19.594Z,102104.75
2023-09-13T13:24:46.300Z,102103.16
2023-09-13T13:27:12.956Z,102110.91
2023-09-13T13:29:39.977Z,102114.22
2023-09-13T13:32:07.358Z,102119.38
2023-09-13T13:34:34.228Z,102121.53
2023-09-13T13:37:00.770Z,102120.34
2023-09-13T13:39:29.270Z,102123.63
2023-09-13T13:41:56.020Z,102124.00
2023-09-13T13:44:22.562Z,102119.34
2023-09-13T13:46:49.037Z,102126.47
2023-09-13T13:49:17.816Z,102127.59
2023-09-13T13:51:46.578Z,102128.59
2023-09-13T13:54:13.186Z,102129.00
2023-09-13T13:56:41.426Z,102126.88
2023-09-13T13:59:10.247Z,102135.25
2023-09-13T14:01:36.896Z,102132.13
2023-09-13T14:04:03.992Z,102123.63
2023-09-13T14:06:30.766Z,102126.00
2023-09-13T14:08:57.296Z,102127.63
2023-09-13T14:11:24.921Z,102121.59
2023-09-13T14:13:51.522Z,102135.09
2023-09-13T14:16:18.006Z,102126.09
2023-09-13T14:18:44.596Z,102125.63
2023-09-13T14:21:11.069Z,102121.56
2023-09-13T14:23:40.618Z,102117.97
2023-09-13T14:26:07.068Z,102132.09
2023-09-13T14:28:36.420Z,102118.63
2023-09-13T14:31:02.933Z,102128.00
2023-09-13T14:33:32.729Z,102127.06
2023-09-13T14:35:59.196Z,102126.75
2023-09-13T14:38:26.842Z,102125.81
2023-09-13T14:40:53.377Z,102120.34
2023-09-13T14:43:19.827Z,102118.31
2023-09-13T14:45:46.805Z,102110.78
2023-09-13T14:48:13.433Z,102117.72
2023-09-13T14:50:41.106Z,102118.53
2023-09-13T14:53:07.556Z,102122.28
2023-09-13T14:55:34.002Z,102121.47
2023-09-13T14:58:00.848Z,102129.97
2023-09-13T15:00:27.348Z,102126.25
2023-09-13T15:02:53.878Z,102119.34
2023-09-13T15:05:20.537Z,102117.28
2023-09-13T15:07:46.970Z,102126.53
2023-09-13T15:10:13.767Z,102126.25
2023-09-13T15:12:40.358Z,102133.97
2023-09-13T15:15:07.187Z,102122.84
2023-09-13T15:17:34.797Z,102133.69
2023-09-13T15:20:01.469Z,102132.91
2023-09-13T15:22:29.872Z,102124.63
2023-09-13T15:24:56.514Z,102132.19
2023-09-13T15:27:25.996Z,102129.94
2023-09-13T15:29:52.639Z,102122.88
2023-09-13T15:32:19.106Z,102123.28
2023-09-13T15:34:45.620Z,102127.84
2023-09-13T15:37:12.064Z,102124.34
2023-09-13T15:39:41.037Z,102121.22
2023-09-13T15:42:07.487Z,102127.19
2023-09-13T15:44:33.977Z,102127.28
2023-09-13T15:47:00.403Z,102135.66
2023-09-13T15:49:27.465Z,102129.25
2023-09-13T15:51:54.020Z,102137.69
2023-09-13T15:54:20.816Z,102143.72
2023-09-13T15:56:48.078Z,102151.69
2023-09-13T15:59:14.525Z,102144.38
2023-09-13T16:01:41.086Z,102138.13
2023-09-13T16:04:08.799Z,102152.22
2023-09-13T16:06:35.827Z,102146.16
2023-09-13T16:09:02.339Z,102149.88
2023-09-13T16:11:32.550Z,102152.09
2023-09-13T16:13:59.187Z,102155.56
2023-09-13T16:16:26.796Z,102154.91
2023-09-13T16:18:53.537Z,102155.50
2023-09-13T16:21:20.622Z,102158.13
2023-09-13T16:23:47.513Z,102162.97
2023-09-13T16:26:14.031Z,102161.94
2023-09-13T16:28:40.602Z,102167.44
2023-09-13T16:31:07.327Z,102170.53
2023-09-13T16:33:34.158Z,102172.59
2023-09-13T16:36:00.675Z,102181.50
2023-09-13T16:38:27.101Z,102176.22
2023-09-13T16:40:53.573Z,102186.34
2023-09-13T16:43:20.008Z,102186.56
2023-09-13T16:45:46.555Z,102193.66
2023-09-13T16:48:23.692Z,102193.84
2023-09-13T16:50:54.744Z,102185.91
2023-09-13T16:53:22.163Z,102195.19
2023-09-13T16:55:48.602Z,102190.69
2023-09-13T16:58:16.196Z,102186.81
2023-09-13T17:00:44.113Z,102198.47
2023-09-13T17:03:10.985Z,102194.78
2023-09-13T17:05:37.565Z,102195.16
2023-09-13T17:08:04.214Z,102202.16
2023-09-13T17:10:31.339Z,102198.69
2023-09-13T17:12:57.852Z,102202.69
2023-09-13T17:15:24.438Z,102205.28
2023-09-13T17:17:50.894Z,102209.75
2023-09-13T17:20:17.468Z,102208.50
2023-09-13T17:22:43.888Z,102205.03
2023-09-13T17:25:10.412Z,102201.34
2023-09-13T17:27:36.874Z,102211.97
2023-09-13T17:30:03.574Z,102205.84
2023-09-13T17:32:30.079Z,102215.47
2023-09-13T17:34:56.513Z,102217.06
2023-09-13T17:37:23.134Z,102225.09
2023-09-13T17:39:49.793Z,102218.78
2023-09-13T17:42:16.339Z,102232.28
2023-09-13T17:44:43.480Z,102235.38
2023-09-13T17:47:09.953Z,102238.72
2023-09-13T17:49:36.414Z,102232.59
2023-09-13T17:52:02.843Z,102251.09
2023-09-13T17:54:29.322Z,102242.66
2023-09-13T17:56:55.842Z,102250.47
2023-09-13T17:59:22.342Z,102251.84
2023-09-13T18:01:49.499Z,102251.84
2023-09-13T18:04:16.169Z,102260.88
2023-09-13T18:06:42.732Z,102257.19
2023-09-13T18:09:09.164Z,102261.44
2023-09-13T18:11:35.604Z,102257.94
2023-09-13T18:14:02.013Z,102257.03
2023-09-13T18:16:29.369Z,102262.41
2023-09-13T18:18:56.000Z,102263.78
2023-09-13T18:21:22.505Z,102266.09
2023-09-13T18:23:48.992Z,102268.81
2023-09-13T18:26:18.611Z,102281.50
2023-09-13T18:28:46.749Z,102276.13
2023-09-13T18:31:13.993Z,102272.41
2023-09-13T18:33:40.689Z,102275.97
2023-09-13T18:36:07.866Z,102279.13
2023-09-13T18:38:35.026Z,102277.03
2023-09-13T18:41:01.458Z,102291.69
2023-09-13T18:43:27.967Z,102288.75
2023-09-13T18:45:59.438Z,102290.94
2023-09-13T18:48:26.251Z,102290.56
2023-09-13T18:51:00.134Z,102290.28
2023-09-13T18:53:28.195Z,102290.97
2023-09-13T18:55:57.082Z,102295.94
2023-09-13T18:58:25.294Z,102306.09
2023-09-13T19:00:59.764Z,102303.03
2023-09-13T19:03:27.608Z,102307.97
2023-09-13T19:06:00.995Z,102311.28
2023-09-13T19:08:29.041Z,102315.78
2023-09-13T19:10:56.264Z,102314.81
2023-09-13T19:13:22.836Z,102318.44
2023-09-13T19:16:03.332Z,102321.41
2023-09-13T19:18:31.336Z,102327.63
2023-09-13T19:20:58.241Z,102327.78
2023-09-13T19:23:26.625Z,102330.09
2023-09-13T19:25:55.094Z,102332.41
2023-09-13T19:28:22.719Z,102331.97
2023-09-13T19:30:53.579Z,102328.56
2023-09-13T19:33:26.853Z,102335.31
2023-09-13T19:35:58.734Z,102333.25
2023-09-13T19:38:30.379Z,102336.53
2023-09-13T19:40:58.211Z,102334.75
2023-09-13T19:43:26.131Z,102338.03
2023-09-13T19:45:55.428Z,102333.16
2023-09-13T19:48:22.043Z,102327.44
2023-09-13T19:50:58.131Z,102332.19
2023-09-13T19:53:25.718Z,102337.25
2023-09-13T19:55:52.272Z,102338.91
2023-09-13T19:58:18.737Z,102334.00
2023-09-13T20:00:48.317Z,102340.22
2023-09-13T20:03:15.609Z,102339.59
2023-09-13T20:05:42.627Z,102329.50
2023-09-13T20:08:09.806Z,102331.63
2023-09-13T20:10:36.326Z,102331.94
2023-09-13T20:13:06.992Z,102337.03
2023-09-13T20:15:33.593Z,102342.25
2023-09-13T20:18:00.778Z,102346.78
2023-09-13T20:20:30.070Z,102349.06
2023-09-13T20:22:56.581Z,102343.69
2023-09-13T20:25:23.333Z,102345.66
2023-09-13T20:27:49.935Z,102346.47
2023-09-13T20:30:16.509Z,102350.72
2023-09-13T20:32:43.053Z,102360.81
2023-09-13T20:35:09.805Z,102355.06
2023-09-13T20:37:36.329Z,102352.16
2023-09-13T20:40:05.194Z,102354.28
2023-09-13T20:42:31.844Z,102350.84
2023-09-13T20:44:58.367Z,102359.16
2023-09-13T20:47:24.781Z,102358.00
2023-09-13T20:49:51.180Z,102357.66
2023-09-13T20:52:17.620Z,102365.16
2023-09-13T20:54:44.207Z,102367.13
2023-09-13T20:57:10.796Z,102357.00
2023-09-13T20:59:37.266Z,102357.16
2023-09-13T21:02:04.743Z,102348.34
2023-09-13T21:04:32.977Z,102352.91
2023-09-13T21:06:59.876Z,102362.38
2023-09-13T21:09:29.126Z,102371.81
2023-09-13T21:11:55.841Z,102371.00
2023-09-13T21:14:22.414Z,102376.22
2023-09-13T21:16:49.458Z,102374.44
2023-09-13T21:19:16.239Z,102370.69
2023-09-13T21:21:42.720Z,102379.31
2023-09-13T21:24:09.274Z,102380.78
2023-09-13T21:26:35.940Z,102378.19
2023-09-13T21:29:02.385Z,102372.28
2023-09-13T21:31:28.910Z,102374.91
2023-09-13T21:33:55.465Z,102375.88
2023-09-13T21:36:23.811Z,102373.59
2023-09-13T21:38:50.949Z,102379.94
2023-09-13T21:41:17.485Z,102385.84
2023-09-13T21:43:43.989Z,102373.44
2023-09-13T21:46:10.552Z,102375.09
2023-09-13T21:48:41.897Z,102378.50
2023-09-13T21:51:09.743Z,102381.91
2023-09-13T21:53:36.169Z,102383.22
2023-09-13T21:56:04.388Z,102384.81
2023-09-13T21:58:32.129Z,102372.25
2023-09-13T22:00:59.782Z,102372.25
2023-09-13T22:03:30.702Z,102375.19
2023-09-13T22:05:57.338Z,102369.97
2023-09-13T22:08:23.796Z,102373.25
2023-09-13T22:11:00.375Z,102375.53
2023-09-13T22:13:26.806Z,102376.47
2023-09-13T22:15:53.423Z,102373.19
2023-09-13T22:18:19.954Z,102380.13
2023-09-13T22:20:46.378Z,102381.44
2023-09-13T22:23:12.783Z,102376.00
2023-09-13T22:25:39.205Z,102379.59
2023-09-13T22:28:06.080Z,102376.53
2023-09-13T22:30:33.262Z,102381.28
2023-09-13T22:32:59.797Z,102379.97
2023-09-13T22:35:26.456Z,102382.28
2023-09-13T22:37:52.846Z,102385.22
2023-09-13T22:40:19.368Z,102381.50
2023-09-13T22:42:46.191Z,102384.75
2023-09-13T22:45:12.663Z,102384.75
2023-09-13T22:47:39.208Z,102379.84
2023-09-13T22:50:08.008Z,102380.81
2023-09-13T22:52:34.743Z,102386.03
2023-09-13T22:55:01.294Z,102383.28
2023-09-13T22:57:30.673Z,102390.78
2023-09-13T22:59:57.219Z,102400.09
2023-09-13T23:02:23.697Z,102388.84
2023-09-13T23:04:50.195Z,102385.25
2023-09-13T23:07:16.806Z,102393.06
2023-09-13T23:09:44.542Z,102394.88
2023-09-13T23:12:11.149Z,102389.00
2023-09-13T23:14:37.642Z,102394.22
2023-09-13T23:17:04.419Z,102392.59
2023-09-13T23:19:30.864Z,102391.63
2023-09-13T23:21:57.316Z,102392.59
2023-09-13T23:24:23.760Z,102393.38
2023-09-13T23:26:51.754Z,102381.50
2023-09-13T23:29:18.487Z,102389.28
2023-09-13T23:31:44.955Z,102393.47
2023-09-13T23:34:12.835Z,102386.97
2023-09-13T23:36:39.459Z,102392.31
2023-09-13T23:39:06.076Z,102390.84
2023-09-13T23:41:32.600Z,102387.72
2023-09-13T23:43:59.149Z,102391.09
2023-09-13T23:46:25.916Z,102389.50
2023-09-13T23:48:53.722Z,102397.66
2023-09-13T23:51:20.249Z,102397.34
2023-09-13T23:53:52.892Z,102396.03
2023-09-13T23:56:21.106Z,102397.53
2023-09-13T23:58:48.851Z,102398.03
